sensor_id;sensor_type;location;lat;lon;timestamp;P1;durP1;ratioP1;P2;durP2;ratioP2
63902;SDS011;50072;50.678;13.938;2023-04-25T00:01:15;11.32;;;3.72;;
63902;SDS011;50072;50.678;13.938;2023-04-25T00:03:49;10.18;;;3.58;;
63902;SDS011;50072;50.678;13.938;2023-04-25T00:06:16;4.30;;;2.60;;
63902;SDS011;50072;50.678;13.938;2023-04-25T00:08:45;7.22;;;3.47;;
63902;SDS011;50072;50.678;13.938;2023-04-25T00:11:11;8.32;;;4.10;;
63902;SDS011;50072;50.678;13.938;2023-04-25T00:13:37;10.32;;;3.20;;
63902;SDS011;50072;50.678;13.938;2023-04-25T00:16:12;6.90;;;3.03;;
63902;SDS011;50072;50.678;13.938;2023-04-25T00:18:41;7.72;;;2.90;;
63902;SDS011;50072;50.678;13.938;2023-04-25T00:21:15;13.23;;;5.68;;
63902;SDS011;50072;50.678;13.938;2023-04-25T00:23:45;35.28;;;13.43;;
63902;SDS011;50072;50.678;13.938;2023-04-25T00:26:15;12.32;;;4.38;;
63902;SDS011;50072;50.678;13.938;2023-04-25T00:31:15;18.13;;;6.47;;
63902;SDS011;50072;50.678;13.938;2023-04-25T00:33:48;10.63;;;4.68;;
63902;SDS011;50072;50.678;13.938;2023-04-25T00:36:15;8.25;;;3.33;;
63902;SDS011;50072;50.678;13.938;2023-04-25T00:38:48;17.50;;;6.82;;
63902;SDS011;50072;50.678;13.938;2023-04-25T00:41:15;12.88;;;5.10;;
63902;SDS011;50072;50.678;13.938;2023-04-25T00:43:48;6.60;;;3.63;;
63902;SDS011;50072;50.678;13.938;2023-04-25T00:46:15;11.00;;;4.18;;
63902;SDS011;50072;50.678;13.938;2023-04-25T00:48:48;6.05;;;3.00;;
63902;SDS011;50072;50.678;13.938;2023-04-25T00:51:21;9.02;;;3.25;;
63902;SDS011;50072;50.678;13.938;2023-04-25T00:53:48;15.13;;;5.40;;
63902;SDS011;50072;50.678;13.938;2023-04-25T00:56:15;10.20;;;3.92;;
63902;SDS011;50072;50.678;13.938;2023-04-25T00:58:45;12.27;;;3.95;;
63902;SDS011;50072;50.678;13.938;2023-04-25T01:01:13;8.32;;;4.03;;
63902;SDS011;50072;50.678;13.938;2023-04-25T01:03:46;13.02;;;3.88;;
63902;SDS011;50072;50.678;13.938;2023-04-25T01:06:12;29.75;;;8.32;;
63902;SDS011;50072;50.678;13.938;2023-04-25T01:08:43;16.05;;;6.40;;
63902;SDS011;50072;50.678;13.938;2023-04-25T01:11:18;8.15;;;4.35;;
63902;SDS011;50072;50.678;13.938;2023-04-25T01:13:45;13.68;;;5.40;;
63902;SDS011;50072;50.678;13.938;2023-04-25T01:16:15;14.90;;;5.07;;
63902;SDS011;50072;50.678;13.938;2023-04-25T01:23:47;16.15;;;5.88;;
63902;SDS011;50072;50.678;13.938;2023-04-25T01:26:15;18.98;;;6.50;;
63902;SDS011;50072;50.678;13.938;2023-04-25T01:28:45;19.60;;;6.05;;
63902;SDS011;50072;50.678;13.938;2023-04-25T01:31:18;21.48;;;6.82;;
63902;SDS011;50072;50.678;13.938;2023-04-25T01:33:45;18.90;;;7.07;;
63902;SDS011;50072;50.678;13.938;2023-04-25T01:38:42;9.23;;;4.85;;
63902;SDS011;50072;50.678;13.938;2023-04-25T01:41:15;9.93;;;4.43;;
63902;SDS011;50072;50.678;13.938;2023-04-25T01:43:45;14.27;;;5.05;;
63902;SDS011;50072;50.678;13.938;2023-04-25T01:46:13;24.67;;;7.75;;
63902;SDS011;50072;50.678;13.938;2023-04-25T01:48:45;14.00;;;5.53;;
63902;SDS011;50072;50.678;13.938;2023-04-25T01:51:15;14.88;;;5.45;;
63902;SDS011;50072;50.678;13.938;2023-04-25T01:53:47;11.77;;;5.68;;
63902;SDS011;50072;50.678;13.938;2023-04-25T01:56:13;19.73;;;6.15;;
63902;SDS011;50072;50.678;13.938;2023-04-25T01:58:46;30.80;;;10.45;;
63902;SDS011;50072;50.678;13.938;2023-04-25T02:01:18;15.43;;;5.97;;
63902;SDS011;50072;50.678;13.938;2023-04-25T02:03:45;13.48;;;6.18;;
63902;SDS011;50072;50.678;13.938;2023-04-25T02:06:18;8.13;;;4.35;;
63902;SDS011;50072;50.678;13.938;2023-04-25T02:08:45;11.98;;;5.47;;
63902;SDS011;50072;50.678;13.938;2023-04-25T02:11:14;14.90;;;6.30;;
63902;SDS011;50072;50.678;13.938;2023-04-25T02:13:40;19.35;;;7.82;;
63902;SDS011;50072;50.678;13.938;2023-04-25T02:18:45;20.17;;;9.30;;
63902;SDS011;50072;50.678;13.938;2023-04-25T02:21:15;13.68;;;6.50;;
63902;SDS011;50072;50.678;13.938;2023-04-25T02:23:47;16.35;;;6.32;;
63902;SDS011;50072;50.678;13.938;2023-04-25T02:26:22;16.05;;;6.00;;
63902;SDS011;50072;50.678;13.938;2023-04-25T02:28:52;12.80;;;5.95;;
63902;SDS011;50072;50.678;13.938;2023-04-25T02:31:22;13.23;;;5.68;;
63902;SDS011;50072;50.678;13.938;2023-04-25T02:33:53;15.75;;;6.10;;
63902;SDS011;50072;50.678;13.938;2023-04-25T02:41:45;11.00;;;4.68;;
63902;SDS011;50072;50.678;13.938;2023-04-25T02:44:12;8.23;;;3.78;;
63902;SDS011;50072;50.678;13.938;2023-04-25T02:46:45;7.00;;;3.70;;
63902;SDS011;50072;50.678;13.938;2023-04-25T02:49:17;8.35;;;4.13;;
63902;SDS011;50072;50.678;13.938;2023-04-25T02:51:45;9.55;;;4.13;;
63902;SDS011;50072;50.678;13.938;2023-04-25T02:54:13;11.38;;;4.13;;
63902;SDS011;50072;50.678;13.938;2023-04-25T02:56:43;8.20;;;3.95;;
63902;SDS011;50072;50.678;13.938;2023-04-25T02:59:15;8.98;;;3.45;;
63902;SDS011;50072;50.678;13.938;2023-04-25T03:01:45;8.50;;;4.20;;
63902;SDS011;50072;50.678;13.938;2023-04-25T03:04:13;7.07;;;3.70;;
63902;SDS011;50072;50.678;13.938;2023-04-25T03:09:17;10.23;;;3.88;;
63902;SDS011;50072;50.678;13.938;2023-04-25T03:11:43;7.03;;;3.70;;
63902;SDS011;50072;50.678;13.938;2023-04-25T03:14:15;7.40;;;4.05;;
63902;SDS011;50072;50.678;13.938;2023-04-25T03:19:15;10.68;;;4.13;;
63902;SDS011;50072;50.678;13.938;2023-04-25T03:21:45;5.93;;;4.30;;
63902;SDS011;50072;50.678;13.938;2023-04-25T03:24:17;8.77;;;4.10;;
63902;SDS011;50072;50.678;13.938;2023-04-25T03:26:45;7.63;;;5.03;;
63902;SDS011;50072;50.678;13.938;2023-04-25T03:29:16;9.13;;;4.25;;
63902;SDS011;50072;50.678;13.938;2023-04-25T03:31:45;8.02;;;4.07;;
63902;SDS011;50072;50.678;13.938;2023-04-25T03:36:47;12.13;;;5.88;;
63902;SDS011;50072;50.678;13.938;2023-04-25T03:39:12;12.98;;;6.22;;
63902;SDS011;50072;50.678;13.938;2023-04-25T03:44:13;13.82;;;4.70;;
63902;SDS011;50072;50.678;13.938;2023-04-25T03:46:45;10.25;;;4.70;;
63902;SDS011;50072;50.678;13.938;2023-04-25T03:49:16;10.50;;;4.68;;
63902;SDS011;50072;50.678;13.938;2023-04-25T03:51:45;12.23;;;4.90;;
63902;SDS011;50072;50.678;13.938;2023-04-25T03:56:48;8.77;;;4.60;;
63902;SDS011;50072;50.678;13.938;2023-04-25T03:59:15;11.15;;;4.88;;
63902;SDS011;50072;50.678;13.938;2023-04-25T04:01:41;9.80;;;5.13;;
63902;SDS011;50072;50.678;13.938;2023-04-25T04:04:07;14.82;;;6.35;;
63902;SDS011;50072;50.678;13.938;2023-04-25T04:06:33;16.02;;;6.43;;
63902;SDS011;50072;50.678;13.938;2023-04-25T04:08:59;14.77;;;5.68;;
63902;SDS011;50072;50.678;13.938;2023-04-25T04:11:25;9.45;;;4.95;;
63902;SDS011;50072;50.678;13.938;2023-04-25T04:13:51;9.13;;;4.63;;
63902;SDS011;50072;50.678;13.938;2023-04-25T04:16:17;12.63;;;5.22;;
63902;SDS011;50072;50.678;13.938;2023-04-25T04:18:44;10.52;;;5.32;;
63902;SDS011;50072;50.678;13.938;2023-04-25T04:21:11;10.75;;;4.85;;
63902;SDS011;50072;50.678;13.938;2023-04-25T04:23:36;9.85;;;5.40;;
63902;SDS011;50072;50.678;13.938;2023-04-25T04:26:02;12.75;;;5.68;;
63902;SDS011;50072;50.678;13.938;2023-04-25T04:28:28;13.40;;;6.75;;
63902;SDS011;50072;50.678;13.938;2023-04-25T04:30:55;24.05;;;10.02;;
63902;SDS011;50072;50.678;13.938;2023-04-25T04:33:21;18.05;;;10.02;;
63902;SDS011;50072;50.678;13.938;2023-04-25T04:35:56;18.25;;;11.05;;
63902;SDS011;50072;50.678;13.938;2023-04-25T04:38:22;14.32;;;7.35;;
63902;SDS011;50072;50.678;13.938;2023-04-25T04:40:48;11.35;;;5.60;;
63902;SDS011;50072;50.678;13.938;2023-04-25T04:43:15;12.13;;;5.53;;
63902;SDS011;50072;50.678;13.938;2023-04-25T04:45:43;10.90;;;5.28;;
63902;SDS011;50072;50.678;13.938;2023-04-25T04:48:10;14.90;;;5.38;;
63902;SDS011;50072;50.678;13.938;2023-04-25T04:50:37;9.55;;;4.55;;
63902;SDS011;50072;50.678;13.938;2023-04-25T04:53:04;13.00;;;5.60;;
63902;SDS011;50072;50.678;13.938;2023-04-25T04:55:30;14.80;;;6.80;;
63902;SDS011;50072;50.678;13.938;2023-04-25T04:57:57;10.98;;;5.25;;
63902;SDS011;50072;50.678;13.938;2023-04-25T05:00:23;12.13;;;5.68;;
63902;SDS011;50072;50.678;13.938;2023-04-25T05:02:50;14.35;;;7.13;;
63902;SDS011;50072;50.678;13.938;2023-04-25T05:05:16;16.13;;;6.95;;
63902;SDS011;50072;50.678;13.938;2023-04-25T05:07:42;21.00;;;10.57;;
63902;SDS011;50072;50.678;13.938;2023-04-25T05:10:09;21.38;;;9.65;;
63902;SDS011;50072;50.678;13.938;2023-04-25T05:12:36;23.17;;;8.63;;
63902;SDS011;50072;50.678;13.938;2023-04-25T05:15:02;13.90;;;6.63;;
63902;SDS011;50072;50.678;13.938;2023-04-25T05:17:29;11.35;;;5.18;;
63902;SDS011;50072;50.678;13.938;2023-04-25T05:19:56;10.63;;;6.10;;
63902;SDS011;50072;50.678;13.938;2023-04-25T05:22:22;10.40;;;5.90;;
63902;SDS011;50072;50.678;13.938;2023-04-25T05:24:50;9.18;;;5.10;;
63902;SDS011;50072;50.678;13.938;2023-04-25T05:27:17;14.10;;;6.05;;
63902;SDS011;50072;50.678;13.938;2023-04-25T05:29:45;14.57;;;6.38;;
63902;SDS011;50072;50.678;13.938;2023-04-25T05:32:11;11.20;;;5.72;;
63902;SDS011;50072;50.678;13.938;2023-04-25T05:34:38;12.45;;;6.07;;
63902;SDS011;50072;50.678;13.938;2023-04-25T05:37:05;13.73;;;5.70;;
63902;SDS011;50072;50.678;13.938;2023-04-25T05:39:33;15.73;;;6.13;;
63902;SDS011;50072;50.678;13.938;2023-04-25T05:41:59;12.68;;;6.20;;
63902;SDS011;50072;50.678;13.938;2023-04-25T05:44:28;13.50;;;5.90;;
63902;SDS011;50072;50.678;13.938;2023-04-25T05:46:54;11.90;;;5.65;;
63902;SDS011;50072;50.678;13.938;2023-04-25T05:49:21;11.88;;;5.60;;
63902;SDS011;50072;50.678;13.938;2023-04-25T05:51:47;12.45;;;5.65;;
63902;SDS011;50072;50.678;13.938;2023-04-25T05:54:13;14.02;;;5.95;;
63902;SDS011;50072;50.678;13.938;2023-04-25T05:56:39;13.77;;;5.47;;
63902;SDS011;50072;50.678;13.938;2023-04-25T05:59:06;12.68;;;6.20;;
63902;SDS011;50072;50.678;13.938;2023-04-25T06:01:33;16.80;;;6.63;;
63902;SDS011;50072;50.678;13.938;2023-04-25T06:04:00;12.40;;;6.18;;
63902;SDS011;50072;50.678;13.938;2023-04-25T06:06:27;9.70;;;5.65;;
63902;SDS011;50072;50.678;13.938;2023-04-25T06:09:01;11.90;;;5.97;;
63902;SDS011;50072;50.678;13.938;2023-04-25T06:11:26;10.15;;;5.85;;
63902;SDS011;50072;50.678;13.938;2023-04-25T06:13:52;11.68;;;5.30;;
63902;SDS011;50072;50.678;13.938;2023-04-25T06:16:31;12.05;;;6.15;;
63902;SDS011;50072;50.678;13.938;2023-04-25T06:18:59;9.23;;;5.40;;
63902;SDS011;50072;50.678;13.938;2023-04-25T06:24:17;12.57;;;6.15;;
63902;SDS011;50072;50.678;13.938;2023-04-25T06:26:45;14.52;;;6.13;;
63902;SDS011;50072;50.678;13.938;2023-04-25T06:29:15;14.73;;;6.78;;
63902;SDS011;50072;50.678;13.938;2023-04-25T06:34:15;13.40;;;6.93;;
63902;SDS011;50072;50.678;13.938;2023-04-25T06:36:47;18.35;;;7.07;;
63902;SDS011;50072;50.678;13.938;2023-04-25T06:39:15;13.70;;;7.07;;
63902;SDS011;50072;50.678;13.938;2023-04-25T06:41:45;15.68;;;7.40;;
63902;SDS011;50072;50.678;13.938;2023-04-25T06:44:17;13.88;;;6.82;;
63902;SDS011;50072;50.678;13.938;2023-04-25T06:46:45;18.73;;;7.60;;
63902;SDS011;50072;50.678;13.938;2023-04-25T06:49:17;17.27;;;7.75;;
63902;SDS011;50072;50.678;13.938;2023-04-25T06:51:44;14.65;;;7.22;;
63902;SDS011;50072;50.678;13.938;2023-04-25T06:54:10;19.65;;;7.60;;
63902;SDS011;50072;50.678;13.938;2023-04-25T06:56:45;15.18;;;7.72;;
63902;SDS011;50072;50.678;13.938;2023-04-25T06:59:18;13.52;;;6.38;;
63902;SDS011;50072;50.678;13.938;2023-04-25T07:01:45;15.80;;;7.13;;
63902;SDS011;50072;50.678;13.938;2023-04-25T07:04:13;12.98;;;6.88;;
63902;SDS011;50072;50.678;13.938;2023-04-25T07:06:45;16.20;;;6.97;;
63902;SDS011;50072;50.678;13.938;2023-04-25T07:09:15;15.43;;;7.13;;
63902;SDS011;50072;50.678;13.938;2023-04-25T07:11:41;25.65;;;12.55;;
63902;SDS011;50072;50.678;13.938;2023-04-25T07:14:09;14.55;;;6.95;;
63902;SDS011;50072;50.678;13.938;2023-04-25T07:16:45;16.63;;;7.75;;
63902;SDS011;50072;50.678;13.938;2023-04-25T07:19:15;12.68;;;7.13;;
63902;SDS011;50072;50.678;13.938;2023-04-25T07:21:47;15.95;;;7.65;;
63902;SDS011;50072;50.678;13.938;2023-04-25T07:24:15;14.18;;;6.75;;
63902;SDS011;50072;50.678;13.938;2023-04-25T07:26:41;17.65;;;6.93;;
63902;SDS011;50072;50.678;13.938;2023-04-25T07:29:15;11.98;;;6.00;;
63902;SDS011;50072;50.678;13.938;2023-04-25T07:31:45;16.88;;;7.10;;
63902;SDS011;50072;50.678;13.938;2023-04-25T07:36:46;18.20;;;8.98;;
63902;SDS011;50072;50.678;13.938;2023-04-25T07:39:15;16.25;;;6.68;;
63902;SDS011;50072;50.678;13.938;2023-04-25T07:41:45;20.13;;;7.15;;
63902;SDS011;50072;50.678;13.938;2023-04-25T07:46:45;18.15;;;7.68;;
63902;SDS011;50072;50.678;13.938;2023-04-25T07:49:15;12.50;;;6.25;;
63902;SDS011;50072;50.678;13.938;2023-04-25T07:51:41;10.43;;;5.95;;
63902;SDS011;50072;50.678;13.938;2023-04-25T07:54:16;12.70;;;6.47;;
63902;SDS011;50072;50.678;13.938;2023-04-25T07:56:45;23.98;;;8.82;;
63902;SDS011;50072;50.678;13.938;2023-04-25T07:59:18;16.92;;;7.55;;
63902;SDS011;50072;50.678;13.938;2023-04-25T08:01:45;13.50;;;6.68;;
63902;SDS011;50072;50.678;13.938;2023-04-25T08:04:12;16.38;;;6.95;;
63902;SDS011;50072;50.678;13.938;2023-04-25T08:06:45;13.18;;;6.38;;
63902;SDS011;50072;50.678;13.938;2023-04-25T08:09:15;13.48;;;6.50;;
63902;SDS011;50072;50.678;13.938;2023-04-25T08:11:42;13.20;;;6.38;;
63902;SDS011;50072;50.678;13.938;2023-04-25T08:14:08;10.85;;;5.85;;
63902;SDS011;50072;50.678;13.938;2023-04-25T08:16:35;11.27;;;6.13;;
63902;SDS011;50072;50.678;13.938;2023-04-25T08:19:02;10.02;;;5.50;;
63902;SDS011;50072;50.678;13.938;2023-04-25T08:21:30;11.98;;;5.90;;
63902;SDS011;50072;50.678;13.938;2023-04-25T08:26:45;10.40;;;5.28;;
63902;SDS011;50072;50.678;13.938;2023-04-25T08:31:46;10.70;;;5.97;;
63902;SDS011;50072;50.678;13.938;2023-04-25T08:34:15;11.50;;;5.25;;
63902;SDS011;50072;50.678;13.938;2023-04-25T08:36:43;9.57;;;5.72;;
63902;SDS011;50072;50.678;13.938;2023-04-25T08:39:15;12.40;;;6.68;;
63902;SDS011;50072;50.678;13.938;2023-04-25T08:41:47;11.10;;;5.45;;
63902;SDS011;50072;50.678;13.938;2023-04-25T08:44:15;12.80;;;6.40;;
63902;SDS011;50072;50.678;13.938;2023-04-25T08:46:41;10.55;;;5.35;;
63902;SDS011;50072;50.678;13.938;2023-04-25T08:49:12;10.25;;;5.88;;
63902;SDS011;50072;50.678;13.938;2023-04-25T08:51:46;12.13;;;5.88;;
63902;SDS011;50072;50.678;13.938;2023-04-25T08:54:13;12.43;;;5.28;;
63902;SDS011;50072;50.678;13.938;2023-04-25T08:56:47;11.52;;;5.20;;
63902;SDS011;50072;50.678;13.938;2023-04-25T08:59:14;11.10;;;5.70;;
63902;SDS011;50072;50.678;13.938;2023-04-25T09:01:40;13.90;;;10.00;;
63902;SDS011;50072;50.678;13.938;2023-04-25T09:04:06;11.90;;;5.55;;
63902;SDS011;50072;50.678;13.938;2023-04-25T09:06:32;7.30;;;3.42;;
63902;SDS011;50072;50.678;13.938;2023-04-25T09:09:06;9.68;;;4.50;;
63902;SDS011;50072;50.678;13.938;2023-04-25T09:11:33;8.70;;;3.78;;
63902;SDS011;50072;50.678;13.938;2023-04-25T09:16:57;10.60;;;4.85;;
63902;SDS011;50072;50.678;13.938;2023-04-25T09:19:28;9.45;;;4.57;;
63902;SDS011;50072;50.678;13.938;2023-04-25T09:21:59;10.30;;;4.57;;
63902;SDS011;50072;50.678;13.938;2023-04-25T09:24:36;8.80;;;4.60;;
63902;SDS011;50072;50.678;13.938;2023-04-25T09:27:09;9.15;;;4.05;;
63902;SDS011;50072;50.678;13.938;2023-04-25T09:29:37;9.18;;;3.63;;
63902;SDS011;50072;50.678;13.938;2023-04-25T09:34:44;10.02;;;4.00;;
63902;SDS011;50072;50.678;13.938;2023-04-25T09:37:16;9.40;;;4.10;;
63902;SDS011;50072;50.678;13.938;2023-04-25T09:39:54;11.43;;;4.28;;
63902;SDS011;50072;50.678;13.938;2023-04-25T09:42:25;5.10;;;3.08;;
63902;SDS011;50072;50.678;13.938;2023-04-25T09:44:53;7.85;;;3.45;;
63902;SDS011;50072;50.678;13.938;2023-04-25T09:47:22;6.82;;;3.25;;
63902;SDS011;50072;50.678;13.938;2023-04-25T09:49:52;7.93;;;4.00;;
63902;SDS011;50072;50.678;13.938;2023-04-25T09:52:22;6.88;;;3.97;;
63902;SDS011;50072;50.678;13.938;2023-04-25T09:54:50;9.30;;;3.70;;
63902;SDS011;50072;50.678;13.938;2023-04-25T09:57:17;10.00;;;4.07;;
63902;SDS011;50072;50.678;13.938;2023-04-25T09:59:46;4.88;;;3.10;;
63902;SDS011;50072;50.678;13.938;2023-04-25T10:02:20;7.30;;;3.50;;
63902;SDS011;50072;50.678;13.938;2023-04-25T10:04:48;6.60;;;3.70;;
63902;SDS011;50072;50.678;13.938;2023-04-25T10:09:48;7.35;;;3.70;;
63902;SDS011;50072;50.678;13.938;2023-04-25T10:12:16;8.18;;;3.65;;
63902;SDS011;50072;50.678;13.938;2023-04-25T10:14:42;8.00;;;3.83;;
63902;SDS011;50072;50.678;13.938;2023-04-25T10:17:10;5.70;;;3.33;;
63902;SDS011;50072;50.678;13.938;2023-04-25T10:19:37;3.72;;;2.60;;
63902;SDS011;50072;50.678;13.938;2023-04-25T10:22:04;5.30;;;2.83;;
63902;SDS011;50072;50.678;13.938;2023-04-25T10:24:37;6.05;;;2.60;;
63902;SDS011;50072;50.678;13.938;2023-04-25T10:27:04;8.55;;;2.58;;
63902;SDS011;50072;50.678;13.938;2023-04-25T10:29:32;6.93;;;3.60;;
63902;SDS011;50072;50.678;13.938;2023-04-25T10:31:57;4.00;;;2.13;;
63902;SDS011;50072;50.678;13.938;2023-04-25T10:34:25;4.93;;;2.53;;
63902;SDS011;50072;50.678;13.938;2023-04-25T10:37:04;3.38;;;1.80;;
63902;SDS011;50072;50.678;13.938;2023-04-25T10:39:29;4.75;;;2.05;;
63902;SDS011;50072;50.678;13.938;2023-04-25T10:41:56;3.70;;;1.90;;
63902;SDS011;50072;50.678;13.938;2023-04-25T10:44:26;3.83;;;2.00;;
63902;SDS011;50072;50.678;13.938;2023-04-25T10:46:54;4.43;;;2.05;;
63902;SDS011;50072;50.678;13.938;2023-04-25T10:57:45;5.80;;;2.42;;
63902;SDS011;50072;50.678;13.938;2023-04-25T11:00:15;5.53;;;2.40;;
63902;SDS011;50072;50.678;13.938;2023-04-25T11:02:46;8.20;;;2.72;;
63902;SDS011;50072;50.678;13.938;2023-04-25T11:07:57;6.32;;;2.80;;
63902;SDS011;50072;50.678;13.938;2023-04-25T11:10:34;5.57;;;2.40;;
63902;SDS011;50072;50.678;13.938;2023-04-25T11:13:15;4.55;;;2.00;;
63902;SDS011;50072;50.678;13.938;2023-04-25T11:15:45;4.25;;;2.20;;
63902;SDS011;50072;50.678;13.938;2023-04-25T11:18:19;4.32;;;2.20;;
63902;SDS011;50072;50.678;13.938;2023-04-25T11:20:53;4.55;;;2.00;;
63902;SDS011;50072;50.678;13.938;2023-04-25T11:23:19;4.32;;;2.10;;
63902;SDS011;50072;50.678;13.938;2023-04-25T11:25:45;3.70;;;2.30;;
63902;SDS011;50072;50.678;13.938;2023-04-25T11:28:10;4.32;;;2.80;;
63902;SDS011;50072;50.678;13.938;2023-04-25T11:30:36;7.38;;;3.53;;
63902;SDS011;50072;50.678;13.938;2023-04-25T11:33:02;4.82;;;2.60;;
63902;SDS011;50072;50.678;13.938;2023-04-25T11:35:28;6.60;;;3.53;;
63902;SDS011;50072;50.678;13.938;2023-04-25T11:37:54;5.60;;;2.95;;
63902;SDS011;50072;50.678;13.938;2023-04-25T11:40:20;5.38;;;3.38;;
63902;SDS011;50072;50.678;13.938;2023-04-25T11:42:46;10.45;;;3.75;;
63902;SDS011;50072;50.678;13.938;2023-04-25T11:45:13;10.85;;;4.70;;
63902;SDS011;50072;50.678;13.938;2023-04-25T11:47:39;12.23;;;5.05;;
63902;SDS011;50072;50.678;13.938;2023-04-25T11:50:06;7.03;;;4.00;;
63902;SDS011;50072;50.678;13.938;2023-04-25T11:55:18;13.15;;;4.40;;
63902;SDS011;50072;50.678;13.938;2023-04-25T11:57:46;8.50;;;5.20;;
63902;SDS011;50072;50.678;13.938;2023-04-25T12:00:18;7.63;;;4.90;;
63902;SDS011;50072;50.678;13.938;2023-04-25T12:02:54;8.98;;;4.70;;
63902;SDS011;50072;50.678;13.938;2023-04-25T12:05:24;8.05;;;4.47;;
63902;SDS011;50072;50.678;13.938;2023-04-25T12:07:54;8.32;;;4.93;;
63902;SDS011;50072;50.678;13.938;2023-04-25T12:10:20;9.25;;;4.55;;
63902;SDS011;50072;50.678;13.938;2023-04-25T12:12:46;9.35;;;5.40;;
63902;SDS011;50072;50.678;13.938;2023-04-25T12:15:14;8.75;;;4.88;;
63902;SDS011;50072;50.678;13.938;2023-04-25T12:17:45;7.60;;;4.50;;
63902;SDS011;50072;50.678;13.938;2023-04-25T12:20:15;8.00;;;4.68;;
63902;SDS011;50072;50.678;13.938;2023-04-25T12:22:43;6.65;;;4.40;;
63902;SDS011;50072;50.678;13.938;2023-04-25T12:25:33;12.13;;;5.78;;
63902;SDS011;50072;50.678;13.938;2023-04-25T12:28:15;8.35;;;4.63;;
63902;SDS011;50072;50.678;13.938;2023-04-25T12:31:18;12.30;;;5.53;;
63902;SDS011;50072;50.678;13.938;2023-04-25T12:33:37;11.02;;;5.80;;
63902;SDS011;50072;50.678;13.938;2023-04-25T12:36:03;10.32;;;6.28;;
63902;SDS011;50072;50.678;13.938;2023-04-25T12:38:37;11.07;;;6.47;;
63902;SDS011;50072;50.678;13.938;2023-04-25T12:41:04;15.77;;;7.78;;
63902;SDS011;50072;50.678;13.938;2023-04-25T12:43:30;10.82;;;6.38;;
63902;SDS011;50072;50.678;13.938;2023-04-25T12:45:57;11.05;;;6.72;;
63902;SDS011;50072;50.678;13.938;2023-04-25T12:48:23;15.23;;;7.55;;
63902;SDS011;50072;50.678;13.938;2023-04-25T12:50:49;15.27;;;8.40;;
63902;SDS011;50072;50.678;13.938;2023-04-25T12:55:43;13.48;;;7.43;;
63902;SDS011;50072;50.678;13.938;2023-04-25T12:58:11;11.45;;;6.88;;
63902;SDS011;50072;50.678;13.938;2023-04-25T13:00:37;11.90;;;6.97;;
63902;SDS011;50072;50.678;13.938;2023-04-25T13:03:03;11.85;;;7.20;;
63902;SDS011;50072;50.678;13.938;2023-04-25T13:05:30;12.35;;;7.30;;
63902;SDS011;50072;50.678;13.938;2023-04-25T13:07:56;8.07;;;5.63;;
63902;SDS011;50072;50.678;13.938;2023-04-25T13:10:22;13.77;;;6.80;;
63902;SDS011;50072;50.678;13.938;2023-04-25T13:12:48;12.70;;;6.57;;
63902;SDS011;50072;50.678;13.938;2023-04-25T13:15:15;14.50;;;6.75;;
63902;SDS011;50072;50.678;13.938;2023-04-25T13:17:41;12.15;;;6.40;;
63902;SDS011;50072;50.678;13.938;2023-04-25T13:20:08;10.98;;;5.93;;
63902;SDS011;50072;50.678;13.938;2023-04-25T13:22:38;13.40;;;5.75;;
63902;SDS011;50072;50.678;13.938;2023-04-25T13:25:05;10.20;;;4.82;;
63902;SDS011;50072;50.678;13.938;2023-04-25T13:27:33;9.90;;;4.40;;
63902;SDS011;50072;50.678;13.938;2023-04-25T13:30:01;8.30;;;4.05;;
63902;SDS011;50072;50.678;13.938;2023-04-25T13:32:33;6.82;;;3.70;;
63902;SDS011;50072;50.678;13.938;2023-04-25T13:35:02;8.35;;;4.00;;
63902;SDS011;50072;50.678;13.938;2023-04-25T13:37:29;8.00;;;2.97;;
63902;SDS011;50072;50.678;13.938;2023-04-25T13:39:56;8.68;;;3.90;;
63902;SDS011;50072;50.678;13.938;2023-04-25T13:42:23;9.38;;;3.15;;
63902;SDS011;50072;50.678;13.938;2023-04-25T13:44:48;7.05;;;3.33;;
63902;SDS011;50072;50.678;13.938;2023-04-25T13:47:14;6.70;;;2.80;;
63902;SDS011;50072;50.678;13.938;2023-04-25T13:49:40;7.63;;;2.80;;
63902;SDS011;50072;50.678;13.938;2023-04-25T13:52:06;7.93;;;2.78;;
63902;SDS011;50072;50.678;13.938;2023-04-25T13:54:33;5.47;;;2.33;;
63902;SDS011;50072;50.678;13.938;2023-04-25T13:56:59;6.20;;;3.10;;
63902;SDS011;50072;50.678;13.938;2023-04-25T13:59:25;7.95;;;2.65;;
63902;SDS011;50072;50.678;13.938;2023-04-25T14:01:52;7.10;;;2.30;;
63902;SDS011;50072;50.678;13.938;2023-04-25T14:04:18;8.57;;;3.10;;
63902;SDS011;50072;50.678;13.938;2023-04-25T14:06:44;8.48;;;2.97;;
63902;SDS011;50072;50.678;13.938;2023-04-25T14:09:11;7.03;;;3.20;;
63902;SDS011;50072;50.678;13.938;2023-04-25T14:11:38;7.15;;;3.50;;
63902;SDS011;50072;50.678;13.938;2023-04-25T14:14:05;10.77;;;3.63;;
63902;SDS011;50072;50.678;13.938;2023-04-25T14:16:30;11.40;;;3.33;;
63902;SDS011;50072;50.678;13.938;2023-04-25T14:19:00;7.60;;;2.95;;
63902;SDS011;50072;50.678;13.938;2023-04-25T14:21:26;11.20;;;3.63;;
63902;SDS011;50072;50.678;13.938;2023-04-25T14:23:53;9.13;;;3.20;;
63902;SDS011;50072;50.678;13.938;2023-04-25T14:26:19;8.85;;;3.72;;
63902;SDS011;50072;50.678;13.938;2023-04-25T14:28:45;11.80;;;3.70;;
63902;SDS011;50072;50.678;13.938;2023-04-25T14:31:11;8.75;;;3.35;;
63902;SDS011;50072;50.678;13.938;2023-04-25T14:33:37;14.98;;;4.90;;
63902;SDS011;50072;50.678;13.938;2023-04-25T14:36:06;11.20;;;4.15;;
63902;SDS011;50072;50.678;13.938;2023-04-25T14:38:32;10.63;;;4.57;;
63902;SDS011;50072;50.678;13.938;2023-04-25T14:40:58;7.00;;;2.92;;
63902;SDS011;50072;50.678;13.938;2023-04-25T14:43:24;8.77;;;3.40;;
63902;SDS011;50072;50.678;13.938;2023-04-25T14:45:49;12.77;;;5.70;;
63902;SDS011;50072;50.678;13.938;2023-04-25T14:48:17;11.30;;;4.70;;
63902;SDS011;50072;50.678;13.938;2023-04-25T14:50:45;9.77;;;4.18;;
63902;SDS011;50072;50.678;13.938;2023-04-25T14:53:11;10.15;;;3.20;;
63902;SDS011;50072;50.678;13.938;2023-04-25T14:55:38;9.48;;;4.28;;
63902;SDS011;50072;50.678;13.938;2023-04-25T14:58:15;13.57;;;5.20;;
63902;SDS011;50072;50.678;13.938;2023-04-25T15:00:47;14.55;;;6.45;;
63902;SDS011;50072;50.678;13.938;2023-04-25T15:03:16;15.43;;;6.13;;
63902;SDS011;50072;50.678;13.938;2023-04-25T15:05:48;12.68;;;4.25;;
63902;SDS011;50072;50.678;13.938;2023-04-25T15:08:15;13.00;;;7.25;;
63902;SDS011;50072;50.678;13.938;2023-04-25T15:10:46;10.10;;;4.10;;
63902;SDS011;50072;50.678;13.938;2023-04-25T15:13:14;9.32;;;4.10;;
63902;SDS011;50072;50.678;13.938;2023-04-25T15:15:46;9.25;;;3.60;;
63902;SDS011;50072;50.678;13.938;2023-04-25T15:18:22;9.70;;;4.70;;
63902;SDS011;50072;50.678;13.938;2023-04-25T15:20:51;10.68;;;4.47;;
63902;SDS011;50072;50.678;13.938;2023-04-25T15:23:19;8.70;;;4.20;;
63902;SDS011;50072;50.678;13.938;2023-04-25T15:25:46;9.70;;;3.63;;
63902;SDS011;50072;50.678;13.938;2023-04-25T15:28:15;8.40;;;3.67;;
63902;SDS011;50072;50.678;13.938;2023-04-25T15:30:43;15.20;;;4.95;;
63902;SDS011;50072;50.678;13.938;2023-04-25T15:35:41;10.57;;;4.03;;
63902;SDS011;50072;50.678;13.938;2023-04-25T15:38:15;10.82;;;4.30;;
63902;SDS011;50072;50.678;13.938;2023-04-25T15:40:41;9.30;;;4.15;;
63902;SDS011;50072;50.678;13.938;2023-04-25T15:43:15;12.70;;;4.43;;
63902;SDS011;50072;50.678;13.938;2023-04-25T15:45:47;11.85;;;3.85;;
63902;SDS011;50072;50.678;13.938;2023-04-25T15:48:15;11.43;;;3.85;;